Mairinque, Brazil
Current Conditions -  °F | °C
As of 7:00 PM on Thursday 27 Nov 2014 (Local Time) from SBSP Reporting Station
Broken Clouds Broken Clouds  
Wind Chill: 68°   Ceiling: 900
Heat Index: 68°   Visibility: 6mi
Dew Point: 63°   Wind: 15mph
Humidity: 83%   Direction: 180°S
Pressure: 30"   Gusts: NA
Location:  23.55°S, 47.18°W
Report Text: SBSP 272100Z 18013KT 9999 BKN009 20/17 Q1016
Loading
Personal Weather Stations






























Interactive Weather Map New forecast layout! Learn more

10-Day Weather Forecast

Advertisements
Track Severe Weather on mobile